^^
Station Historical Data
Daily Summary for October 12, 2018 Units:  Metric    English   Both
Next Day »
Daily Weekly Monthly Yearly Custom
  High: Low: Average:
Temperature: 27.4 °C 17.3 °C 20.8 °C
Dew Point: 18.2 °C 11.6 °C 15 °C
Humidity: 94% 41% 72%
Wind Speed: 17.7km/h 0.0km/h 3.8km/h
Wind Gust: 19.3km/h - -
Wind- - East
Pressure: 1009.7 hPa 1003.3 hPa -
Precipitation: 10.7 mm    
Historical Graphs
 
 
Tabular Data for October 12, 2018
Time Temperature Dew Point Pressure Wind Wind Speed Wind Gust Humidity Rainfall Rate (Hourly) solar Conditions
00:04 21.8 °C 13.4 °C 1008.7 hPa East 1.6 km/h 0.2 km/h 59% 0.0 mm 0.00 W/m2 OVC
00:09 21.8 °C 13.7 °C 1008.8 hPa East 1.9 km/h   60% 0.0 mm 0.00 W/m2 OVC
00:14 21.7 °C 13.9 °C 1008.8 hPa East 1.9 km/h 1.0 km/h 61% 0.0 mm 0.00 W/m2 OVC
00:19 21.7 °C 14.1 °C 1008.6 hPa Calm     62% 0.0 mm 0.00 W/m2 OVC
00:24 21.6 °C 13.9 °C 1008.5 hPa Calm     62% 0.0 mm 0.00 W/m2 OVC
00:29 21.6 °C 14.2 °C 1008.5 hPa East 1.9 km/h   63% 0.0 mm 0.00 W/m2 OVC
00:34 21.5 °C 14.4 °C 1008.7 hPa Calm     64% 0.0 mm 0.00 W/m2 OVC
00:39 21.4 °C 14.8 °C 1008.8 hPa East 5.6 km/h 1.3 km/h 66% 0.0 mm 0.00 W/m2 OVC
00:44 21.2 °C 14.8 °C 1008.8 hPa SSE 1.9 km/h 0.5 km/h 67% 0.0 mm 0.00 W/m2 OVC
00:49 21.1 °C 14.9 °C 1008.8 hPa SW 3.2 km/h 1.9 km/h 68% 0.0 mm 0.00 W/m2 OVC
00:54 20.7 °C 15.5 °C 1008.9 hPa WSW 3.7 km/h 3.1 km/h 72% 0.0 mm 0.00 W/m2 OVC
00:59 20.3 °C 15.6 °C 1008.9 hPa SSE 5.6 km/h 1.4 km/h 74% 0.0 mm 0.00 W/m2 OVC
01:04 19.9 °C 15.7 °C 1008.9 hPa SSE 5.6 km/h 2.7 km/h 77% 0.5 mm 0.00 W/m2 RA
01:09 19.4 °C 15.7 °C 1008.9 hPa East 3.7 km/h 1.1 km/h 79% 1.3 mm 0.00 W/m2 RA
01:14 19.1 °C 15.5 °C 1008.8 hPa ESE 3.7 km/h   80% 1.8 mm 0.00 W/m2 RA
01:19 18.7 °C 15.6 °C 1008.9 hPa ESE 3.7 km/h 0.5 km/h 82% 2.0 mm 0.00 W/m2 RA
01:24 18.6 °C 15.6 °C 1008.8 hPa Calm     83% 2.0 mm 0.00 W/m2 RA
01:29 18.4 °C 15.8 °C 1008.5 hPa NE 5.6 km/h 3.2 km/h 85% 2.3 mm 0.00 W/m2 RA
01:34 18.3 °C 15.9 °C 1008.4 hPa NE 3.7 km/h 1.4 km/h 86% 2.3 mm 0.00 W/m2 RA
01:39 18.2 °C 15.8 °C 1008.4 hPa NNE 5.6 km/h 1.3 km/h 86% 2.3 mm 0.00 W/m2 OVC
01:44 18.2 °C 15.9 °C 1008.4 hPa NNE 5.6 km/h 0.5 km/h 87% 2.3 mm 0.00 W/m2 OVC
01:49 18.1 °C 15.9 °C 1008.4 hPa Calm     87% 2.5 mm 0.00 W/m2 RA
01:54 18.1 °C 16.1 °C 1008.5 hPa NNE 4.8 km/h 2.6 km/h 88% 3.0 mm 0.00 W/m2 RA
01:59 18.1 °C 16.1 °C 1008.5 hPa North 3.2 km/h 1.4 km/h 88% 3.3 mm 0.00 W/m2 RA
02:04 18.1 °C 16.1 °C 1008.6 hPa North 3.7 km/h 1.9 km/h 88% 3.0 mm 0.00 W/m2 -RA
02:09 18.1 °C 16.2 °C 1008.8 hPa North 4.8 km/h 1.6 km/h 89% 2.5 mm 0.00 W/m2 -RA
02:14 18.0 °C 16.0 °C 1008.8 hPa NE 4.8 km/h 0.8 km/h 88% 2.3 mm 0.00 W/m2 -RA
02:19 17.9 °C 16.1 °C 1009.0 hPa NE 3.7 km/h 0.2 km/h 89% 2.5 mm 0.00 W/m2 -RA
02:24 17.8 °C 16.0 °C 1009.0 hPa Calm     89% 3.0 mm 0.00 W/m2 -RA
02:29 17.8 °C 16.0 °C 1009.1 hPa Calm     89% 4.1 mm 0.00 W/m2 -RA
02:34 17.8 °C 15.9 °C 1009.0 hPa NE 4.8 km/h 0.3 km/h 89% 4.3 mm 0.00 W/m2 -RA
02:39 17.7 °C 16.1 °C 1008.8 hPa NE 6.4 km/h 2.6 km/h 90% 4.8 mm 0.00 W/m2 -RA
02:44 17.6 °C 15.9 °C 1008.9 hPa NE 5.6 km/h 1.3 km/h 90% 4.8 mm 0.00 W/m2 -RA
02:49 17.6 °C 15.9 °C 1008.8 hPa NE 5.6 km/h 1.8 km/h 90% 4.6 mm 0.00 W/m2 -RA
02:54 17.6 °C 15.9 °C 1008.8 hPa NE 3.7 km/h 0.6 km/h 90% 4.3 mm 0.00 W/m2 -RA
02:59 17.5 °C 16.0 °C 1008.8 hPa NE 1.9 km/h 1.0 km/h 91% 4.1 mm 0.00 W/m2 -RA
03:04 17.5 °C 16.0 °C 1008.7 hPa NE 3.7 km/h 0.5 km/h 91% 4.1 mm 0.00 W/m2 -RA
03:09 17.5 °C 16.0 °C 1008.7 hPa NE 3.7 km/h 0.6 km/h 91% 3.8 mm 0.00 W/m2 -RA
03:14 17.5 °C 16.0 °C 1008.8 hPa Calm     91% 3.6 mm 0.00 W/m2 -RA
03:19 17.4 °C 15.9 °C 1008.8 hPa Calm     91% 3.0 mm 0.00 W/m2 -RA
03:24 17.4 °C 15.9 °C 1008.7 hPa Calm     91% 2.5 mm 0.00 W/m2 -RA
03:29 17.4 °C 15.9 °C 1008.7 hPa NE 3.7 km/h 1.4 km/h 91% 1.5 mm 0.00 W/m2 -RA
03:34 17.4 °C 15.9 °C 1008.6 hPa NE 4.8 km/h 2.1 km/h 91% 1.3 mm 0.00 W/m2 -RA
03:39 17.3 °C 15.8 °C 1008.5 hPa NE 3.7 km/h 1.6 km/h 91% 0.8 mm 0.00 W/m2 -RA
03:44 17.4 °C 15.9 °C 1008.5 hPa NNE 4.8 km/h 2.3 km/h 91% 0.8 mm 0.00 W/m2 -RA
03:49 17.3 °C 15.8 °C 1008.4 hPa NNE 5.6 km/h 1.4 km/h 91% 1.0 mm 0.00 W/m2 -RA
03:54 17.3 °C 15.8 °C 1008.3 hPa NNE 7.4 km/h 3.1 km/h 91% 0.8 mm 0.00 W/m2 -RA
03:59 17.3 °C 15.9 °C 1008.2 hPa NE 5.6 km/h 5.3 km/h 92% 0.8 mm 0.00 W/m2 -RA
04:04 17.3 °C 15.9 °C 1008.1 hPa NNE 6.4 km/h 4.3 km/h 92% 0.5 mm 0.00 W/m2 OVC
04:09 17.3 °C 15.9 °C 1008.1 hPa NE 7.4 km/h 2.7 km/h 92% 0.5 mm 0.00 W/m2 OVC
04:14 17.3 °C 15.9 °C 1008.1 hPa NE 3.7 km/h 1.1 km/h 92% 0.5 mm 0.00 W/m2 OVC
04:19 17.3 °C 15.9 °C 1008.1 hPa NE 1.9 km/h 1.0 km/h 92% 0.5 mm 0.00 W/m2 OVC
04:24 17.3 °C 15.9 °C 1008.1 hPa NE 3.7 km/h 1.9 km/h 92% 0.5 mm 0.00 W/m2 OVC
04:29 17.3 °C 16.0 °C 1008.2 hPa Calm     92% 0.3 mm 0.00 W/m2 OVC
04:34 17.3 °C 16.0 °C 1008.2 hPa Calm     92% 0.3 mm 0.00 W/m2 OVC
04:39 17.3 °C 16.0 °C 1008.2 hPa NE 1.9 km/h 0.2 km/h 92% 0.3 mm 0.00 W/m2 OVC
04:44 17.3 °C 16.0 °C 1008.2 hPa NE 1.9 km/h   92% 0.3 mm 0.00 W/m2 OVC
04:49 17.3 °C 16.0 °C 1008.2 hPa Calm     92% 0.0 mm 0.00 W/m2 OVC
04:54 17.3 °C 16.0 °C 1008.2 hPa Calm     92% 0.0 mm 0.00 W/m2 OVC
04:59 17.4 °C 16.1 °C 1008.2 hPa NE 1.9 km/h   92% 0.0 mm 0.00 W/m2 OVC
05:04 17.4 °C 16.1 °C 1008.3 hPa Calm     92% 0.0 mm 0.00 W/m2 -RA
05:09 17.4 °C 16.1 °C 1008.4 hPa Calm     92% 0.0 mm 0.00 W/m2 -RA
05:14 17.4 °C 16.1 °C 1008.4 hPa NE 1.9 km/h   92% 0.0 mm 0.00 W/m2 -RA
05:19 17.4 °C 16.1 °C 1008.5 hPa Calm     92% 0.3 mm 0.00 W/m2 -RA
05:24 17.4 °C 16.3 °C 1008.4 hPa NE 1.9 km/h   93% 0.3 mm 0.00 W/m2 -RA
05:29 17.4 °C 16.1 °C 1008.6 hPa NE 1.9 km/h   92% 0.3 mm 0.00 W/m2 -RA
05:34 17.4 °C 16.3 °C 1008.7 hPa Calm     93% 0.5 mm 0.00 W/m2 -RA
05:39 17.4 °C 16.3 °C 1008.8 hPa Calm     93% 0.5 mm 0.00 W/m2 -RA
05:44 17.4 °C 16.3 °C 1008.7 hPa NE 1.9 km/h   93% 0.5 mm 0.00 W/m2 -RA
05:49 17.5 °C 16.3 °C 1008.7 hPa NE 1.9 km/h 0.8 km/h 93% 0.8 mm 0.00 W/m2 -RA
05:54 17.4 °C 16.3 °C 1008.7 hPa NE 1.9 km/h   93% 0.8 mm 0.00 W/m2 -RA
05:59 17.4 °C 16.3 °C 1008.6 hPa NE 1.9 km/h 0.2 km/h 93% 0.8 mm 0.00 W/m2 -RA
06:04 17.4 °C 16.3 °C 1008.5 hPa NE 1.6 km/h 0.2 km/h 93% 0.8 mm 0.00 W/m2 -RA
06:09 17.5 °C 16.3 °C 1008.4 hPa Calm     93% 0.8 mm 0.00 W/m2 -RA
06:14 17.5 °C 16.3 °C 1008.4 hPa Calm     93% 1.0 mm 0.00 W/m2 -RA
06:19 17.5 °C 16.3 °C 1008.3 hPa Calm     93% 0.8 mm 0.00 W/m2 -RA
06:24 17.5 °C 16.3 °C 1008.3 hPa Calm     93% 0.8 mm 0.00 W/m2 -RA
06:29 17.5 °C 16.3 °C 1008.3 hPa Calm     93% 0.8 mm 0.00 W/m2 -RA
06:34 17.5 °C 16.3 °C 1008.3 hPa Calm     93% 0.8 mm 0.00 W/m2 -RA
06:39 17.5 °C 16.3 °C 1008.3 hPa Calm     93% 0.8 mm 7.00 W/m2 -RA
06:44 17.5 °C 16.3 °C 1008.3 hPa Calm     93% 0.8 mm 7.00 W/m2 -RA
06:49 17.5 °C 16.3 °C 1008.3 hPa NE 1.9 km/h   93% 0.5 mm 9.00 W/m2 -RA
06:54 17.5 °C 16.3 °C 1008.4 hPa Calm     93% 0.5 mm 11.00 W/m2 -RA
06:59 17.5 °C 16.3 °C 1008.3 hPa NE 1.9 km/h   93% 0.5 mm 11.00 W/m2 -RA
07:04 17.4 °C 16.3 °C 1008.2 hPa Calm     93% 0.5 mm 12.00 W/m2 -RA
07:09 17.4 °C 16.3 °C 1008.2 hPa Calm     93% 0.5 mm 12.00 W/m2 -RA
07:14 17.5 °C 16.3 °C 1008.2 hPa Calm     93% 0.5 mm 14.00 W/m2 -RA
07:19 17.5 °C 16.3 °C 1008.1 hPa Calm     93% 0.5 mm 18.00 W/m2 -RA
07:24 17.5 °C 16.3 °C 1007.9 hPa NE 1.9 km/h 0.3 km/h 93% 0.5 mm 19.00 W/m2 -RA
07:29 17.6 °C 16.4 °C 1007.9 hPa NE 1.6 km/h 0.2 km/h 93% 0.5 mm 19.00 W/m2 -RA
07:34 17.6 °C 16.4 °C 1007.8 hPa NE 3.7 km/h 1.0 km/h 93% 0.3 mm 19.00 W/m2 -RA
07:39 17.6 °C 16.4 °C 1007.8 hPa NE 1.9 km/h 0.3 km/h 93% 0.3 mm 21.00 W/m2 -RA
07:45 17.6 °C 16.4 °C 1008.0 hPa Calm   3.2 km/h 93% 0.0 mm 28.00 W/m2 -RA
07:49 17.6 °C 16.4 °C 1008.3 hPa Calm     93% 0.5 mm 39.00 W/m2 -RA
07:54 17.6 °C 16.4 °C 1008.1 hPa Calm     93% 0.5 mm 39.00 W/m2 -RA
07:59 17.6 °C 16.4 °C 1008.2 hPa Calm     93% 0.5 mm 37.00 W/m2 -RA
08:04 17.7 °C 16.5 °C 1008.5 hPa NE 1.9 km/h 0.2 km/h 93% 0.8 mm 51.00 W/m2 RA
08:09 17.7 °C 16.5 °C 1008.6 hPa Calm     93% 0.8 mm 54.00 W/m2 RA
08:14 17.7 °C 16.6 °C 1008.7 hPa Calm     93% 0.5 mm 42.00 W/m2 BKN
08:19 17.7 °C 16.7 °C 1008.9 hPa NE 3.7 km/h 0.3 km/h 94% 0.5 mm 35.00 W/m2 BKN
08:24 17.8 °C 16.8 °C 1008.9 hPa NE 3.7 km/h 1.0 km/h 94% 0.5 mm 40.00 W/m2 BKN
08:29 17.8 °C 16.8 °C 1009.0 hPa NE 1.6 km/h 0.2 km/h 94% 0.5 mm 44.00 W/m2 BKN
08:34 17.8 °C 16.8 °C 1009.1 hPa NE 1.9 km/h 1.9 km/h 94% 0.5 mm 46.00 W/m2 BKN
08:39 17.8 °C 16.8 °C 1009.1 hPa NE 3.7 km/h   94% 0.5 mm 60.00 W/m2 BKN
08:44 17.9 °C 16.9 °C 1009.3 hPa Calm     94% 0.5 mm 81.00 W/m2 BKN
08:49 17.9 °C 16.9 °C 1009.6 hPa NE 5.6 km/h 1.6 km/h 94% 0.5 mm 86.00 W/m2 RA
08:54 18.0 °C 17.0 °C 1009.6 hPa SSE 1.9 km/h 0.8 km/h 94% 0.5 mm 104.00 W/m2 RA
08:59 18.1 °C 17.1 °C 1009.6 hPa SSE 1.9 km/h 0.3 km/h 94% 0.8 mm 105.00 W/m2 RA
09:04 18.1 °C 17.1 °C 1009.7 hPa South 1.9 km/h 0.2 km/h 94% 0.5 mm 95.00 W/m2 -RA
09:09 18.1 °C 17.1 °C 1009.6 hPa South 3.7 km/h 0.2 km/h 94% 0.5 mm 98.00 W/m2 -RA
09:14 18.2 °C 17.2 °C 1009.5 hPa South 3.7 km/h 0.8 km/h 94% 0.5 mm 111.00 W/m2 -RA
09:19 18.2 °C 17.2 °C 1009.4 hPa South 1.9 km/h   94% 0.5 mm 172.00 W/m2 -RA
09:24 18.3 °C 17.3 °C 1009.2 hPa South 1.9 km/h 0.3 km/h 94% 0.5 mm 199.00 W/m2 -RA
09:29 18.3 °C 17.3 °C 1009.0 hPa Calm     94% 0.5 mm 199.00 W/m2 -RA
09:34 18.5 °C 17.5 °C 1008.9 hPa South 1.6 km/h   94% 0.5 mm 193.00 W/m2 -RA
09:39 18.6 °C 17.6 °C 1008.7 hPa SE 3.2 km/h 0.6 km/h 94% 0.5 mm 174.00 W/m2 -RA
09:44 18.6 °C 17.6 °C 1008.6 hPa SE 3.7 km/h   94% 0.5 mm 158.00 W/m2 -RA
09:49 18.6 °C 17.6 °C 1008.4 hPa Calm     94% 0.3 mm 151.00 W/m2 -RA
09:54 18.6 °C 17.6 °C 1008.4 hPa ESE 1.9 km/h 0.3 km/h 94% 0.3 mm 179.00 W/m2 -RA
09:59 18.7 °C 17.7 °C 1008.3 hPa East 1.9 km/h 0.2 km/h 94% 0.0 mm 190.00 W/m2 -RA
10:04 18.8 °C 17.8 °C 1008.1 hPa NNE 3.7 km/h 0.6 km/h 94% 0.0 mm 199.00 W/m2 -RA
10:09 18.9 °C 17.9 °C 1008.1 hPa NE 7.4 km/h 3.7 km/h 94% 0.0 mm 209.00 W/m2 -RA
10:14 19.0 °C 18.0 °C 1008.0 hPa NE 5.6 km/h 3.2 km/h 94% 0.0 mm 195.00 W/m2 -RA
10:19 19.1 °C 17.9 °C 1007.9 hPa NNE 11.3 km/h 6.8 km/h 93% 0.0 mm 172.00 W/m2 -RA
10:24 19.1 °C 17.9 °C 1008.1 hPa North 9.3 km/h 4.3 km/h 93% 0.0 mm 220.00 W/m2 -RA
10:29 19.2 °C 18.0 °C 1008.1 hPa NNE 4.8 km/h 2.9 km/h 93% 0.0 mm 288.00 W/m2 -RA
10:34 19.3 °C 18.1 °C 1008.1 hPa NNE 5.6 km/h 2.4 km/h 93% 0.0 mm 334.00 W/m2 -RA
10:39 19.4 °C 18.1 °C 1008.1 hPa NE 7.4 km/h 4.2 km/h 92% 0.0 mm 350.00 W/m2 -RA
10:44 19.5 °C 18.0 °C 1008.1 hPa NNE 5.6 km/h 2.9 km/h 91% 0.0 mm 418.00 W/m2 -RA
10:49 19.7 °C 18.2 °C 1008.2 hPa ENE 9.7 km/h 5.6 km/h 91% 0.0 mm 441.00 W/m2 -RA
10:54 19.8 °C 18.2 °C 1008.2 hPa East 3.7 km/h 1.6 km/h 90% 0.0 mm 413.00 W/m2 -RA
10:59 20.1 °C 18.0 °C 1008.2 hPa North 5.6 km/h 0.3 km/h 88% 0.0 mm 374.00 W/m2 -RA
11:04 20.2 °C 17.8 °C 1008.3 hPa NNE 7.4 km/h 5.1 km/h 86% 0.0 mm 353.00 W/m2 SCT
11:09 20.4 °C 17.8 °C 1008.3 hPa ENE 3.7 km/h 0.3 km/h 85% 0.0 mm 334.00 W/m2 SCT
11:14 20.6 °C 17.6 °C 1008.3 hPa East 5.6 km/h 1.4 km/h 83% 0.0 mm 338.00 W/m2 SCT
11:19 20.7 °C 17.6 °C 1008.2 hPa East 1.9 km/h 0.3 km/h 82% 0.0 mm 352.00 W/m2 SCT
11:24 20.8 °C 17.4 °C 1008.1 hPa East 3.7 km/h 0.6 km/h 81% 0.0 mm 355.00 W/m2 SCT
11:29 21.0 °C 17.4 °C 1008.0 hPa Calm     80% 0.0 mm 360.00 W/m2 SCT
11:34 21.2 °C 17.2 °C 1008.0 hPa ENE 5.6 km/h 1.9 km/h 78% 0.0 mm 376.00 W/m2 SCT
11:39 21.3 °C 17.1 °C 1007.9 hPa ENE 1.9 km/h 0.2 km/h 77% 0.0 mm 378.00 W/m2 SCT
11:44 21.5 °C 17.1 °C 1007.9 hPa NE 1.9 km/h   76% 0.0 mm 387.00 W/m2 SCT
11:49 21.7 °C 17.5 °C 1007.8 hPa NE 3.7 km/h 1.3 km/h 77% 0.0 mm 439.00 W/m2 SCT
11:55 21.9 °C 17.5 °C 1007.7 hPa Calm   3.2 km/h 76% 0.0 mm 497.00 W/m2 SCT
11:59 22.3 °C 17.4 °C 1007.6 hPa SSE 3.7 km/h 1.8 km/h 74% 0.0 mm 547.00 W/m2 SCT
12:04 22.6 °C 17.3 °C 1007.4 hPa SE 5.6 km/h 4.0 km/h 72% 0.0 mm 462.00 W/m2 -RA
12:09 22.9 °C 16.9 °C 1007.3 hPa ESE 8.0 km/h 7.4 km/h 69% 0.0 mm 461.00 W/m2 -RA
12:14 23.1 °C 16.3 °C 1007.2 hPa SE 13.0 km/h 5.3 km/h 66% 0.0 mm 466.00 W/m2 -RA
12:19 23.2 °C 16.2 °C 1007.2 hPa ESE 17.7 km/h 8.7 km/h 65% 0.0 mm 446.00 W/m2 -RA
12:25 23.2 °C 16.5 °C 1007.0 hPa East 4.8 km/h 19.3 km/h 66% 0.0 mm 420.00 W/m2 -RA
12:29 23.2 °C 16.1 °C 1006.9 hPa SE 13.0 km/h 5.6 km/h 64% 0.0 mm 464.00 W/m2 -RA
12:35 23.2 °C 16.1 °C 1006.7 hPa ESE 3.2 km/h 14.5 km/h 64% 0.0 mm 455.00 W/m2 -RA
12:39 23.3 °C 15.6 °C 1006.7 hPa SE 8.0 km/h 1.0 km/h 62% 0.0 mm 427.00 W/m2 -RA
12:44 23.3 °C 15.7 °C 1006.5 hPa SE 7.4 km/h 4.0 km/h 62% 0.0 mm 503.00 W/m2 -RA
12:49 23.4 °C 15.7 °C 1006.5 hPa SSE 11.1 km/h 3.5 km/h 62% 0.0 mm 499.00 W/m2 -RA
12:54 23.4 °C 15.7 °C 1006.4 hPa SSE 11.1 km/h 3.7 km/h 62% 0.0 mm 374.00 W/m2 -RA
12:59 23.3 °C 15.9 °C 1006.3 hPa ENE 5.6 km/h 2.3 km/h 63% 0.0 mm 362.00 W/m2 -RA
13:04 23.3 °C 15.9 °C 1005.9 hPa SE 9.3 km/h 3.1 km/h 63% 0.0 mm 485.00 W/m2 SCT
13:09 23.4 °C 16.0 °C 1005.7 hPa ESE 11.1 km/h 2.7 km/h 63% 0.0 mm 450.00 W/m2 SCT
13:14 23.6 °C 15.9 °C 1005.5 hPa SSE 5.6 km/h 2.6 km/h 62% 0.0 mm 431.00 W/m2 SCT
13:19 23.7 °C 15.9 °C 1005.5 hPa ESE 5.6 km/h 4.0 km/h 62% 0.0 mm 487.00 W/m2 SCT
13:24 23.8 °C 16.1 °C 1005.2 hPa ESE 9.3 km/h 5.5 km/h 62% 0.0 mm 469.00 W/m2 SCT
13:29 24.0 °C 16.0 °C 1005.1 hPa NE 4.8 km/h 6.0 km/h 61% 0.0 mm 564.00 W/m2 SCT
13:34 24.2 °C 15.9 °C 1005.0 hPa SE 13.0 km/h 4.8 km/h 60% 0.0 mm 605.00 W/m2 SCT
13:39 24.3 °C 15.8 °C 1004.8 hPa ESE 14.8 km/h 6.1 km/h 59% 0.0 mm 575.00 W/m2 SCT
13:45 24.4 °C 16.1 °C 1004.8 hPa SE 4.8 km/h 12.9 km/h 60% 0.0 mm 446.00 W/m2 SCT
13:49 24.6 °C 16.3 °C 1004.7 hPa ENE 7.4 km/h 3.4 km/h 60% 0.0 mm 766.00 W/m2 SCT
13:54 24.7 °C 16.1 °C 1004.7 hPa East 5.6 km/h 2.4 km/h 59% 0.0 mm 468.00 W/m2 SCT
13:59 24.8 °C 16.0 °C 1004.5 hPa NNE 9.7 km/h 3.2 km/h 58% 0.0 mm 608.00 W/m2 SCT
14:05 25.0 °C 15.9 °C 1004.5 hPa East 3.2 km/h 9.7 km/h 57% 0.0 mm 816.00 W/m2 SCT
14:09 25.3 °C 16.4 °C 1004.4 hPa East 5.6 km/h 1.4 km/h 58% 0.0 mm 617.00 W/m2 SCT
14:15 25.6 °C 16.1 °C 1004.4 hPa East 1.6 km/h 4.8 km/h 56% 0.0 mm 668.00 W/m2 SCT
14:19 25.9 °C 15.9 °C 1004.3 hPa East 5.6 km/h 1.3 km/h 54% 0.0 mm 673.00 W/m2 SCT
14:25 26.1 °C 15.2 °C 1004.2 hPa SSE 1.6 km/h 9.7 km/h 51% 0.0 mm 784.00 W/m2 SCT
14:29 26.3 °C 15.1 °C 1004.1 hPa ESE 3.7 km/h 3.9 km/h 50% 0.0 mm 417.00 W/m2 SCT
14:35 26.3 °C 15.1 °C 1004.0 hPa Calm   4.8 km/h 50% 0.0 mm 438.00 W/m2 SCT
14:39 26.3 °C 14.8 °C 1003.8 hPa East 3.7 km/h 0.5 km/h 49% 0.0 mm 515.00 W/m2 SCT
14:44 26.4 °C 14.6 °C 1003.9 hPa NE 5.6 km/h 4.3 km/h 48% 0.0 mm 464.00 W/m2 SCT
14:49 26.5 °C 14.3 °C 1003.8 hPa Calm     47% 0.0 mm 415.00 W/m2 SCT
14:55 26.7 °C 14.4 °C 1003.7 hPa ENE 1.6 km/h 4.8 km/h 47% 0.0 mm 601.00 W/m2 SCT
14:59 26.9 °C 14.6 °C 1003.7 hPa NNE 1.6 km/h 0.3 km/h 47% 0.0 mm 510.00 W/m2 SCT
15:05 27.2 °C 15.2 °C 1003.7 hPa NW 1.6 km/h 4.8 km/h 48% 0.0 mm 478.00 W/m2 OVC
15:09 27.4 °C 15.1 °C 1003.7 hPa NE 6.4 km/h 2.7 km/h 47% 0.0 mm 339.00 W/m2 OVC
15:15 27.3 °C 15.1 °C 1003.8 hPa Calm   8.0 km/h 47% 0.0 mm 301.00 W/m2 OVC
15:19 27.2 °C 13.6 °C 1003.6 hPa NE 8.0 km/h 4.8 km/h 43% 0.0 mm 417.00 W/m2 OVC
15:24 27.2 °C 13.5 °C 1003.6 hPa ESE 11.1 km/h 5.8 km/h 43% 0.0 mm 302.00 W/m2 OVC
15:29 26.8 °C 13.5 °C 1003.5 hPa SE 5.6 km/h 1.0 km/h 44% 0.0 mm 297.00 W/m2 OVC
15:35 26.6 °C 13.7 °C 1003.6 hPa ESE 1.6 km/h 8.0 km/h 45% 0.0 mm 258.00 W/m2 OVC
15:39 26.4 °C 12.8 °C 1003.5 hPa NNE 5.6 km/h 3.5 km/h 43% 0.0 mm 392.00 W/m2 OVC
15:44 26.3 °C 12.0 °C 1003.5 hPa East 9.3 km/h 3.5 km/h 41% 0.0 mm 287.00 W/m2 OVC
15:49 26.2 °C 12.6 °C 1003.5 hPa ENE 9.3 km/h 4.2 km/h 43% 0.0 mm 401.00 W/m2 OVC
15:54 26.2 °C 12.6 °C 1003.5 hPa ESE 5.6 km/h 1.0 km/h 43% 0.0 mm 413.00 W/m2 OVC
15:59 26.2 °C 12.6 °C 1003.5 hPa NE 6.4 km/h 0.8 km/h 43% 0.0 mm 241.00 W/m2 OVC
16:04 26.2 °C 12.9 °C 1003.4 hPa East 5.6 km/h 2.4 km/h 44% 0.0 mm 452.00 W/m2 SCT
16:09 26.1 °C 12.2 °C 1003.3 hPa South 11.3 km/h 7.2 km/h 42% 0.0 mm 322.00 W/m2 SCT
16:14 26.2 °C 12.9 °C 1003.3 hPa ESE 5.6 km/h 2.9 km/h 44% 0.0 mm 392.00 W/m2 SCT
16:19 26.3 °C 12.7 °C 1003.4 hPa SSE 7.4 km/h 4.7 km/h 43% 0.0 mm 404.00 W/m2 SCT
16:25 26.4 °C 14.5 °C 1003.4 hPa ESE 3.2 km/h 12.9 km/h 48% 0.0 mm 330.00 W/m2 SCT
16:29 26.3 °C 12.8 °C 1003.6 hPa East 9.3 km/h 5.1 km/h 43% 0.0 mm 325.00 W/m2 SCT
16:35 26.3 °C 12.0 °C 1003.6 hPa East 4.8 km/h 9.7 km/h 41% 0.0 mm 301.00 W/m2 SCT
16:39 26.3 °C 12.3 °C 1003.6 hPa SE 7.4 km/h 0.6 km/h 42% 0.0 mm 134.00 W/m2 SCT
16:45 26.1 °C 11.8 °C 1003.6 hPa ESE 4.8 km/h 11.3 km/h 41% 0.0 mm 174.00 W/m2 SCT
16:49 25.9 °C 12.0 °C 1003.7 hPa SE 5.6 km/h 1.6 km/h 42% 0.0 mm 69.00 W/m2 SCT
16:55 25.8 °C 12.3 °C 1003.7 hPa ESE 8.0 km/h 11.3 km/h 43% 0.0 mm 67.00 W/m2 SCT
16:59 25.6 °C 12.1 °C 1003.8 hPa ESE 9.3 km/h 3.5 km/h 43% 0.0 mm 70.00 W/m2 SCT
17:05 25.5 °C 12.3 °C 1003.9 hPa ESE 1.6 km/h 8.0 km/h 44% 0.0 mm 90.00 W/m2 OVC
17:09 25.4 °C 12.3 °C 1003.9 hPa SE 5.6 km/h 1.9 km/h 44% 0.0 mm 84.00 W/m2 OVC
17:15 25.3 °C 12.2 °C 1004.0 hPa SE 4.8 km/h 8.0 km/h 44% 0.0 mm 79.00 W/m2 OVC
17:19 25.3 °C 12.5 °C 1004.1 hPa ESE 5.6 km/h 0.6 km/h 45% 0.0 mm 72.00 W/m2 OVC
17:25 25.2 °C 12.1 °C 1004.1 hPa SE 1.6 km/h 14.5 km/h 44% 0.0 mm 62.00 W/m2 OVC
17:29 25.1 °C 12.3 °C 1004.1 hPa SE 5.6 km/h 0.8 km/h 45% 0.0 mm 47.00 W/m2 OVC
17:35 25.0 °C 11.9 °C 1004.1 hPa SE 3.2 km/h 8.0 km/h 44% 0.0 mm 35.00 W/m2 OVC
17:39 24.8 °C 11.7 °C 1004.1 hPa ESE 5.6 km/h 1.4 km/h 44% 0.0 mm 25.00 W/m2 OVC
17:45 24.7 °C 12.0 °C 1004.3 hPa Calm   9.7 km/h 45% 0.0 mm 16.00 W/m2 OVC
17:49 24.6 °C 12.2 °C 1004.3 hPa SSE 3.7 km/h 1.6 km/h 46% 0.0 mm 9.00 W/m2 OVC
17:54 24.4 °C 12.4 °C 1004.3 hPa SSE 5.6 km/h 2.6 km/h 47% 0.0 mm 5.00 W/m2 OVC
17:59 24.3 °C 11.9 °C 1004.4 hPa SSE 8.0 km/h 3.2 km/h 46% 0.0 mm 0.00 W/m2 OVC
18:05 24.2 °C 12.2 °C 1004.4 hPa SE 1.6 km/h 6.4 km/h 47% 0.0 mm 0.00 W/m2 SCT
18:09 23.9 °C 11.9 °C 1004.5 hPa SSW 7.4 km/h 1.6 km/h 47% 0.0 mm 0.00 W/m2 SCT
18:15 23.8 °C 11.8 °C 1004.5 hPa SE 3.2 km/h 6.4 km/h 47% 0.0 mm 0.00 W/m2 SCT
18:19 23.7 °C 12.0 °C 1004.6 hPa SE 3.7 km/h 3.2 km/h 48% 0.0 mm 0.00 W/m2 SCT
18:24 23.5 °C 11.8 °C 1004.7 hPa SSE 5.6 km/h 2.3 km/h 48% 0.0 mm 0.00 W/m2 SCT
18:29 23.4 °C 11.8 °C 1004.9 hPa SSE 6.4 km/h 1.1 km/h 48% 0.0 mm 0.00 W/m2 SCT
18:35 23.2 °C 11.6 °C 1005.0 hPa SSE 1.6 km/h 6.4 km/h 48% 0.0 mm 0.00 W/m2 SCT
18:39 23.1 °C 12.1 °C 1005.2 hPa South 7.4 km/h 3.1 km/h 50% 0.0 mm 0.00 W/m2 SCT
18:45 22.9 °C 12.8 °C 1005.3 hPa Calm   9.7 km/h 53% 0.0 mm 0.00 W/m2 SCT
18:49 22.7 °C 13.5 °C 1005.5 hPa ESE 7.4 km/h 5.8 km/h 56% 0.0 mm 0.00 W/m2 SCT
18:55 22.5 °C 13.6 °C 1005.6 hPa South 3.2 km/h 8.0 km/h 57% 0.0 mm 0.00 W/m2 SCT
18:59 22.3 °C 13.6 °C 1005.6 hPa South 5.6 km/h 2.6 km/h 58% 0.0 mm 0.00 W/m2 SCT
19:05 22.1 °C 13.4 °C 1005.6 hPa South 3.2 km/h 9.7 km/h 58% 0.0 mm 0.00 W/m2 CLR
19:09 21.9 °C 13.5 °C 1005.6 hPa South 5.6 km/h 2.9 km/h 59% 0.0 mm 0.00 W/m2 CLR
19:14 21.8 °C 13.4 °C 1005.7 hPa SE 3.7 km/h 3.1 km/h 59% 0.0 mm 0.00 W/m2 CLR
19:19 21.7 °C 13.1 °C 1005.8 hPa SE 5.6 km/h 1.9 km/h 58% 0.0 mm 0.00 W/m2 CLR
19:25 21.7 °C 13.1 °C 1006.0 hPa SE 1.6 km/h 6.4 km/h 58% 0.0 mm 0.00 W/m2 CLR
19:29 21.6 °C 12.7 °C 1006.0 hPa SE 3.7 km/h 0.6 km/h 57% 0.0 mm 0.00 W/m2 CLR
19:35 21.6 °C 12.4 °C 1006.0 hPa Calm   4.8 km/h 56% 0.0 mm 0.00 W/m2 CLR
19:39 21.5 °C 12.3 °C 1006.0 hPa SE 1.9 km/h   56% 0.0 mm 0.00 W/m2 CLR
19:44 21.4 °C 12.2 °C 1006.1 hPa ESE 4.8 km/h 1.3 km/h 56% 0.0 mm 0.00 W/m2 CLR
19:49 21.3 °C 12.2 °C 1006.1 hPa ESE 5.6 km/h 3.4 km/h 56% 0.0 mm 0.00 W/m2 CLR
19:55 21.3 °C 12.2 °C 1006.3 hPa Calm   6.4 km/h 56% 0.0 mm 0.00 W/m2 CLR
19:59 21.3 °C 12.2 °C 1006.3 hPa East 1.9 km/h 1.0 km/h 56% 0.0 mm 0.00 W/m2 CLR
20:05 21.3 °C 12.4 °C 1006.3 hPa ESE 3.2 km/h 4.8 km/h 57% 0.0 mm 0.00 W/m2 CLR
20:09 21.3 °C 12.4 °C 1006.4 hPa ESE 3.2 km/h 0.8 km/h 57% 0.0 mm 0.00 W/m2 CLR
20:15 21.2 °C 12.3 °C 1006.3 hPa ESE 3.2 km/h 6.4 km/h 57% 0.0 mm 0.00 W/m2 CLR
20:19 21.2 °C 12.6 °C 1006.4 hPa East 5.6 km/h 1.1 km/h 58% 0.0 mm 0.00 W/m2 CLR
20:25 21.1 °C 12.8 °C 1006.5 hPa Calm   3.2 km/h 59% 0.0 mm 0.00 W/m2 CLR
20:29 21.1 °C 12.7 °C 1006.5 hPa SE 5.6 km/h 0.2 km/h 59% 0.0 mm 0.00 W/m2 CLR
20:35 20.9 °C 12.7 °C 1006.5 hPa SE 3.2 km/h 8.0 km/h 59% 0.0 mm 0.00 W/m2 CLR
20:39 20.9 °C 12.8 °C 1006.6 hPa ESE 3.7 km/h 0.8 km/h 60% 0.0 mm 0.00 W/m2 CLR
20:45 20.8 °C 12.8 °C 1006.6 hPa SE 1.6 km/h 6.4 km/h 60% 0.0 mm 0.00 W/m2 CLR
20:49 20.8 °C 13.0 °C 1006.7 hPa East 4.8 km/h 2.7 km/h 61% 0.0 mm 0.00 W/m2 CLR
20:55 20.7 °C 12.9 °C 1006.7 hPa Calm   6.4 km/h 61% 0.0 mm 0.00 W/m2 CLR
20:59 20.7 °C 12.9 °C 1006.7 hPa ESE 5.6 km/h 1.8 km/h 61% 0.0 mm 0.00 W/m2 CLR
21:05 20.6 °C 12.8 °C 1006.8 hPa Calm   6.4 km/h 61% 0.0 mm 0.00 W/m2 SCT
21:09 20.6 °C 13.1 °C 1006.8 hPa East 3.7 km/h 1.4 km/h 62% 0.0 mm 0.00 W/m2 SCT
21:15 20.6 °C 13.1 °C 1006.9 hPa ESE 3.2 km/h 11.3 km/h 62% 0.0 mm 0.00 W/m2 SCT
21:19 20.6 °C 13.0 °C 1006.9 hPa South 9.3 km/h   62% 0.0 mm 0.00 W/m2 SCT
21:25 20.6 °C 13.0 °C 1006.9 hPa SSE 3.2 km/h 9.7 km/h 62% 0.0 mm 0.00 W/m2 SCT
21:29 20.5 °C 13.2 °C 1006.9 hPa East 5.6 km/h 2.9 km/h 63% 0.0 mm 0.00 W/m2 SCT
21:35 20.4 °C 13.2 °C 1006.9 hPa ESE 1.6 km/h 9.7 km/h 63% 0.0 mm 0.00 W/m2 SCT
21:39 20.4 °C 13.3 °C 1006.9 hPa NE 3.7 km/h 1.6 km/h 64% 0.0 mm 0.00 W/m2 SCT
21:45 20.3 °C 13.3 °C 1006.9 hPa East 3.2 km/h 8.0 km/h 64% 0.0 mm 0.00 W/m2 SCT
21:49 20.3 °C 13.2 °C 1006.9 hPa South 3.7 km/h 3.1 km/h 64% 0.0 mm 0.00 W/m2 SCT
21:55 20.3 °C 13.0 °C 1006.8 hPa ESE 3.2 km/h 8.0 km/h 63% 0.0 mm 0.00 W/m2 SCT
21:59 20.2 °C 12.9 °C 1006.9 hPa SSE 5.6 km/h 6.1 km/h 63% 0.0 mm 0.00 W/m2 SCT
22:05 20.2 °C 12.9 °C 1007.0 hPa ESE 1.6 km/h 9.7 km/h 63% 0.0 mm 0.00 W/m2 CLR
22:09 20.2 °C 12.9 °C 1007.0 hPa ENE 3.7 km/h 1.0 km/h 63% 0.0 mm 0.00 W/m2 CLR
22:15 20.2 °C 12.9 °C 1007.0 hPa ESE 1.6 km/h 8.0 km/h 63% 0.0 mm 0.00 W/m2 CLR
22:19 20.1 °C 13.1 °C 1007.0 hPa ENE 5.6 km/h 2.7 km/h 64% 0.0 mm 0.00 W/m2 CLR
22:25 20.0 °C 13.0 °C 1007.0 hPa SE 3.2 km/h 8.0 km/h 64% 0.0 mm 0.00 W/m2 CLR
22:29 19.9 °C 13.2 °C 1007.0 hPa ESE 7.4 km/h 2.1 km/h 65% 0.0 mm 0.00 W/m2 CLR
22:35 19.9 °C 13.1 °C 1007.0 hPa ESE 1.6 km/h 4.8 km/h 65% 0.0 mm 0.00 W/m2 CLR
22:39 19.8 °C 13.0 °C 1007.0 hPa ESE 3.7 km/h 0.2 km/h 65% 0.0 mm 0.00 W/m2 CLR
22:45 19.7 °C 13.2 °C 1007.0 hPa Calm   3.2 km/h 66% 0.0 mm 0.00 W/m2 CLR
22:49 19.6 °C 13.1 °C 1007.0 hPa SSE 5.6 km/h 2.4 km/h 66% 0.0 mm 0.00 W/m2 CLR
22:55 19.6 °C 13.3 °C 1007.1 hPa ESE 1.6 km/h 8.0 km/h 67% 0.0 mm 0.00 W/m2 CLR
22:59 19.4 °C 13.2 °C 1007.1 hPa ESE 1.9 km/h 0.2 km/h 67% 0.0 mm 0.00 W/m2 CLR
23:05 19.4 °C 13.1 °C 1007.1 hPa Calm   3.2 km/h 67% 0.0 mm 0.00 W/m2 OVC
23:09 19.3 °C 13.1 °C 1007.1 hPa ESE 5.6 km/h 1.3 km/h 67% 0.0 mm 0.00 W/m2 OVC
23:15 19.3 °C 13.2 °C 1007.1 hPa Calm   3.2 km/h 68% 0.0 mm 0.00 W/m2 OVC
23:19 19.2 °C 13.2 °C 1007.1 hPa East 5.6 km/h 0.5 km/h 68% 0.0 mm 0.00 W/m2 OVC
23:25 19.2 °C 13.1 °C 1007.1 hPa East 1.9 km/h 0.3 km/h 68% 0.0 mm 0.00 W/m2 OVC
23:29 19.2 °C 13.3 °C 1007.1 hPa East 3.7 km/h 1.1 km/h 69% 0.0 mm 0.00 W/m2 OVC
23:35 19.1 °C 13.3 °C 1007.2 hPa Calm   4.8 km/h 69% 0.0 mm 0.00 W/m2 OVC
23:39 19.1 °C 13.2 °C 1007.2 hPa SE 3.7 km/h 3.2 km/h 69% 0.0 mm 0.00 W/m2 OVC
23:45 19.1 °C 13.2 °C 1007.2 hPa ESE 1.6 km/h 8.0 km/h 69% 0.0 mm 0.00 W/m2 OVC
23:49 19.1 °C 13.2 °C 1007.1 hPa ESE 3.7 km/h 1.4 km/h 69% 0.0 mm 0.00 W/m2 OVC
23:55 19.1 °C 13.2 °C 1007.1 hPa ESE 1.6 km/h 4.8 km/h 69% 0.0 mm 0.00 W/m2 OVC
23:59 19.2 °C 13.1 °C 1007.1 hPa East 5.6 km/h 2.3 km/h 68% 0.0 mm 0.00 W/m2 OVC
Countryside Manor, Tucson, AZ, USA